sensor_id;sensor_type;location;lat;lon;timestamp;P1;durP1;ratioP1;P2;durP2;ratioP2
21581;SDS011;10952;50.836;4.348;2022-07-25T00:01:46;10.05;;;6.97;;
21581;SDS011;10952;50.836;4.348;2022-07-25T00:04:11;11.35;;;7.20;;
21581;SDS011;10952;50.836;4.348;2022-07-25T00:06:38;8.43;;;6.38;;
21581;SDS011;10952;50.836;4.348;2022-07-25T00:09:04;11.85;;;7.22;;
21581;SDS011;10952;50.836;4.348;2022-07-25T00:11:30;9.15;;;5.65;;
21581;SDS011;10952;50.836;4.348;2022-07-25T00:13:55;7.38;;;6.00;;
21581;SDS011;10952;50.836;4.348;2022-07-25T00:16:21;8.88;;;5.38;;
21581;SDS011;10952;50.836;4.348;2022-07-25T00:18:47;10.00;;;6.45;;
21581;SDS011;10952;50.836;4.348;2022-07-25T00:21:12;7.47;;;5.10;;
21581;SDS011;10952;50.836;4.348;2022-07-25T00:23:38;10.82;;;5.68;;
21581;SDS011;10952;50.836;4.348;2022-07-25T00:26:04;8.38;;;5.20;;
21581;SDS011;10952;50.836;4.348;2022-07-25T00:28:30;9.93;;;4.97;;
21581;SDS011;10952;50.836;4.348;2022-07-25T00:30:56;10.00;;;5.43;;
21581;SDS011;10952;50.836;4.348;2022-07-25T00:33:21;8.20;;;5.10;;
21581;SDS011;10952;50.836;4.348;2022-07-25T00:35:47;7.15;;;5.10;;
21581;SDS011;10952;50.836;4.348;2022-07-25T00:38:13;7.85;;;4.93;;
21581;SDS011;10952;50.836;4.348;2022-07-25T00:40:38;7.10;;;4.85;;
21581;SDS011;10952;50.836;4.348;2022-07-25T00:43:04;7.35;;;5.05;;
21581;SDS011;10952;50.836;4.348;2022-07-25T00:45:32;10.25;;;5.00;;
21581;SDS011;10952;50.836;4.348;2022-07-25T00:47:57;7.43;;;4.80;;
21581;SDS011;10952;50.836;4.348;2022-07-25T00:50:23;8.32;;;4.95;;
21581;SDS011;10952;50.836;4.348;2022-07-25T00:52:50;10.15;;;5.35;;
21581;SDS011;10952;50.836;4.348;2022-07-25T00:55:17;10.25;;;5.00;;
21581;SDS011;10952;50.836;4.348;2022-07-25T00:57:44;9.00;;;5.32;;
21581;SDS011;10952;50.836;4.348;2022-07-25T01:00:12;8.52;;;5.32;;
21581;SDS011;10952;50.836;4.348;2022-07-25T01:02:39;10.48;;;5.82;;
21581;SDS011;10952;50.836;4.348;2022-07-25T01:05:05;8.18;;;5.65;;
21581;SDS011;10952;50.836;4.348;2022-07-25T01:07:32;6.78;;;4.80;;
21581;SDS011;10952;50.836;4.348;2022-07-25T01:09:58;7.95;;;4.78;;
21581;SDS011;10952;50.836;4.348;2022-07-25T01:12:24;7.97;;;5.45;;
21581;SDS011;10952;50.836;4.348;2022-07-25T01:14:49;7.95;;;5.15;;
21581;SDS011;10952;50.836;4.348;2022-07-25T01:17:15;9.15;;;5.10;;
21581;SDS011;10952;50.836;4.348;2022-07-25T01:19:41;7.00;;;4.78;;
21581;SDS011;10952;50.836;4.348;2022-07-25T01:22:07;8.40;;;5.50;;
21581;SDS011;10952;50.836;4.348;2022-07-25T01:24:33;11.70;;;5.13;;
21581;SDS011;10952;50.836;4.348;2022-07-25T01:27:00;9.63;;;5.50;;
21581;SDS011;10952;50.836;4.348;2022-07-25T01:29:26;7.80;;;4.88;;
21581;SDS011;10952;50.836;4.348;2022-07-25T01:31:56;8.40;;;5.05;;
21581;SDS011;10952;50.836;4.348;2022-07-25T01:34:21;9.05;;;5.03;;
21581;SDS011;10952;50.836;4.348;2022-07-25T01:36:48;10.43;;;5.43;;
21581;SDS011;10952;50.836;4.348;2022-07-25T01:39:14;8.10;;;5.63;;
21581;SDS011;10952;50.836;4.348;2022-07-25T01:41:39;7.15;;;5.47;;
21581;SDS011;10952;50.836;4.348;2022-07-25T01:44:05;8.70;;;5.65;;
21581;SDS011;10952;50.836;4.348;2022-07-25T01:46:30;8.85;;;5.40;;
21581;SDS011;10952;50.836;4.348;2022-07-25T01:48:56;10.18;;;5.63;;
21581;SDS011;10952;50.836;4.348;2022-07-25T01:51:21;7.85;;;5.30;;
21581;SDS011;10952;50.836;4.348;2022-07-25T01:53:47;10.30;;;6.10;;
21581;SDS011;10952;50.836;4.348;2022-07-25T01:56:13;9.77;;;5.75;;
21581;SDS011;10952;50.836;4.348;2022-07-25T01:58:39;10.60;;;5.80;;
21581;SDS011;10952;50.836;4.348;2022-07-25T02:01:05;8.93;;;5.93;;
21581;SDS011;10952;50.836;4.348;2022-07-25T02:03:31;9.98;;;5.25;;
21581;SDS011;10952;50.836;4.348;2022-07-25T02:05:57;12.65;;;6.28;;
21581;SDS011;10952;50.836;4.348;2022-07-25T02:08:28;13.07;;;5.90;;
21581;SDS011;10952;50.836;4.348;2022-07-25T02:10:54;10.80;;;6.38;;
21581;SDS011;10952;50.836;4.348;2022-07-25T02:13:21;11.38;;;5.55;;
21581;SDS011;10952;50.836;4.348;2022-07-25T02:15:48;9.45;;;5.93;;
21581;SDS011;10952;50.836;4.348;2022-07-25T02:18:14;10.68;;;5.88;;
21581;SDS011;10952;50.836;4.348;2022-07-25T02:20:42;11.73;;;6.13;;
21581;SDS011;10952;50.836;4.348;2022-07-25T02:23:07;16.60;;;5.88;;
21581;SDS011;10952;50.836;4.348;2022-07-25T02:25:33;9.82;;;6.72;;
21581;SDS011;10952;50.836;4.348;2022-07-25T02:28:00;11.30;;;6.13;;
21581;SDS011;10952;50.836;4.348;2022-07-25T02:30:26;13.63;;;6.03;;
21581;SDS011;10952;50.836;4.348;2022-07-25T02:32:53;8.23;;;6.43;;
21581;SDS011;10952;50.836;4.348;2022-07-25T02:35:20;13.73;;;6.10;;
21581;SDS011;10952;50.836;4.348;2022-07-25T02:37:45;14.32;;;6.38;;
21581;SDS011;10952;50.836;4.348;2022-07-25T02:40:12;11.88;;;6.38;;
21581;SDS011;10952;50.836;4.348;2022-07-25T02:42:38;16.25;;;7.60;;
21581;SDS011;10952;50.836;4.348;2022-07-25T02:45:04;10.15;;;5.93;;
21581;SDS011;10952;50.836;4.348;2022-07-25T02:47:30;13.77;;;6.65;;
21581;SDS011;10952;50.836;4.348;2022-07-25T02:49:55;10.77;;;6.55;;
21581;SDS011;10952;50.836;4.348;2022-07-25T02:52:21;15.98;;;7.15;;
21581;SDS011;10952;50.836;4.348;2022-07-25T02:54:46;11.27;;;6.47;;
21581;SDS011;10952;50.836;4.348;2022-07-25T02:57:14;9.63;;;6.32;;
21581;SDS011;10952;50.836;4.348;2022-07-25T02:59:42;9.63;;;6.43;;
21581;SDS011;10952;50.836;4.348;2022-07-25T03:02:08;10.80;;;7.07;;
21581;SDS011;10952;50.836;4.348;2022-07-25T03:04:33;10.63;;;6.82;;
21581;SDS011;10952;50.836;4.348;2022-07-25T03:06:59;10.52;;;6.70;;
21581;SDS011;10952;50.836;4.348;2022-07-25T03:09:24;7.38;;;5.97;;
21581;SDS011;10952;50.836;4.348;2022-07-25T03:11:50;10.27;;;6.00;;
21581;SDS011;10952;50.836;4.348;2022-07-25T03:14:16;7.97;;;5.75;;
21581;SDS011;10952;50.836;4.348;2022-07-25T03:16:41;13.60;;;6.32;;
21581;SDS011;10952;50.836;4.348;2022-07-25T03:19:07;10.55;;;6.30;;
21581;SDS011;10952;50.836;4.348;2022-07-25T03:21:35;11.57;;;6.20;;
21581;SDS011;10952;50.836;4.348;2022-07-25T03:24:01;12.23;;;6.82;;
21581;SDS011;10952;50.836;4.348;2022-07-25T03:26:27;8.80;;;6.22;;
21581;SDS011;10952;50.836;4.348;2022-07-25T03:28:52;9.65;;;5.93;;
21581;SDS011;10952;50.836;4.348;2022-07-25T03:31:18;9.30;;;6.05;;
21581;SDS011;10952;50.836;4.348;2022-07-25T03:33:43;13.90;;;6.85;;
21581;SDS011;10952;50.836;4.348;2022-07-25T03:36:10;9.07;;;6.32;;
21581;SDS011;10952;50.836;4.348;2022-07-25T03:38:35;9.85;;;6.10;;
21581;SDS011;10952;50.836;4.348;2022-07-25T03:41:01;11.18;;;6.32;;
21581;SDS011;10952;50.836;4.348;2022-07-25T03:43:29;11.77;;;6.65;;
21581;SDS011;10952;50.836;4.348;2022-07-25T03:45:55;9.95;;;6.35;;
21581;SDS011;10952;50.836;4.348;2022-07-25T03:48:22;10.77;;;7.07;;
21581;SDS011;10952;50.836;4.348;2022-07-25T03:50:48;10.52;;;6.28;;
21581;SDS011;10952;50.836;4.348;2022-07-25T03:53:13;9.27;;;6.68;;
21581;SDS011;10952;50.836;4.348;2022-07-25T03:55:39;9.60;;;6.90;;
21581;SDS011;10952;50.836;4.348;2022-07-25T03:58:05;12.00;;;7.10;;
21581;SDS011;10952;50.836;4.348;2022-07-25T04:00:31;11.43;;;6.53;;
21581;SDS011;10952;50.836;4.348;2022-07-25T04:02:57;13.70;;;6.82;;
21581;SDS011;10952;50.836;4.348;2022-07-25T04:05:23;10.07;;;6.78;;
21581;SDS011;10952;50.836;4.348;2022-07-25T04:07:48;16.65;;;6.80;;
21581;SDS011;10952;50.836;4.348;2022-07-25T04:10:14;11.25;;;7.18;;
21581;SDS011;10952;50.836;4.348;2022-07-25T04:12:39;12.45;;;6.47;;
21581;SDS011;10952;50.836;4.348;2022-07-25T04:15:05;9.75;;;6.45;;
21581;SDS011;10952;50.836;4.348;2022-07-25T04:17:31;11.88;;;6.22;;
21581;SDS011;10952;50.836;4.348;2022-07-25T04:19:57;11.52;;;6.47;;
21581;SDS011;10952;50.836;4.348;2022-07-25T04:22:23;9.00;;;5.75;;
21581;SDS011;10952;50.836;4.348;2022-07-25T04:24:48;8.40;;;5.80;;
21581;SDS011;10952;50.836;4.348;2022-07-25T04:27:14;8.02;;;5.72;;
21581;SDS011;10952;50.836;4.348;2022-07-25T04:29:41;11.38;;;6.00;;
21581;SDS011;10952;50.836;4.348;2022-07-25T04:32:07;10.80;;;6.13;;
21581;SDS011;10952;50.836;4.348;2022-07-25T04:34:33;8.25;;;5.20;;
21581;SDS011;10952;50.836;4.348;2022-07-25T04:36:58;8.80;;;5.10;;
21581;SDS011;10952;50.836;4.348;2022-07-25T04:39:24;8.07;;;5.17;;
21581;SDS011;10952;50.836;4.348;2022-07-25T04:41:49;8.18;;;4.90;;
21581;SDS011;10952;50.836;4.348;2022-07-25T04:44:15;9.77;;;5.50;;
21581;SDS011;10952;50.836;4.348;2022-07-25T04:46:41;9.35;;;4.70;;
21581;SDS011;10952;50.836;4.348;2022-07-25T04:49:07;6.63;;;4.27;;
21581;SDS011;10952;50.836;4.348;2022-07-25T04:51:33;8.83;;;4.23;;
21581;SDS011;10952;50.836;4.348;2022-07-25T04:54:00;5.83;;;3.80;;
21581;SDS011;10952;50.836;4.348;2022-07-25T04:56:26;9.20;;;4.33;;
21581;SDS011;10952;50.836;4.348;2022-07-25T04:58:52;8.13;;;3.70;;
21581;SDS011;10952;50.836;4.348;2022-07-25T05:01:17;7.77;;;3.87;;
21581;SDS011;10952;50.836;4.348;2022-07-25T05:03:43;7.60;;;3.27;;
21581;SDS011;10952;50.836;4.348;2022-07-25T05:06:09;5.57;;;3.40;;
21581;SDS011;10952;50.836;4.348;2022-07-25T05:08:35;9.30;;;2.77;;
21581;SDS011;10952;50.836;4.348;2022-07-25T05:11:00;9.70;;;3.47;;
21581;SDS011;10952;50.836;4.348;2022-07-25T05:13:32;6.70;;;3.33;;
21581;SDS011;10952;50.836;4.348;2022-07-25T05:16:00;6.93;;;2.73;;
21581;SDS011;10952;50.836;4.348;2022-07-25T05:23:26;7.57;;;2.70;;
21581;SDS011;10952;50.836;4.348;2022-07-25T05:25:54;6.20;;;2.80;;
21581;SDS011;10952;50.836;4.348;2022-07-25T05:30:51;9.27;;;2.63;;
21581;SDS011;10952;50.836;4.348;2022-07-25T05:33:16;6.57;;;2.60;;
21581;SDS011;10952;50.836;4.348;2022-07-25T05:35:42;6.50;;;2.80;;
21581;SDS011;10952;50.836;4.348;2022-07-25T05:38:09;11.27;;;2.50;;
21581;SDS011;10952;50.836;4.348;2022-07-25T05:40:34;7.57;;;2.20;;
21581;SDS011;10952;50.836;4.348;2022-07-25T05:43:00;13.40;;;3.97;;
21581;SDS011;10952;50.836;4.348;2022-07-25T05:45:26;7.73;;;2.47;;
21581;SDS011;10952;50.836;4.348;2022-07-25T05:47:53;11.70;;;2.40;;
21581;SDS011;10952;50.836;4.348;2022-07-25T05:50:19;8.80;;;2.40;;
21581;SDS011;10952;50.836;4.348;2022-07-25T05:52:45;10.93;;;3.23;;
21581;SDS011;10952;50.836;4.348;2022-07-25T05:55:10;9.60;;;2.70;;
21581;SDS011;10952;50.836;4.348;2022-07-25T05:57:37;13.20;;;2.50;;
21581;SDS011;10952;50.836;4.348;2022-07-25T06:00:04;7.60;;;2.57;;
21581;SDS011;10952;50.836;4.348;2022-07-25T06:02:30;12.00;;;2.27;;
21581;SDS011;10952;50.836;4.348;2022-07-25T06:04:57;4.80;;;2.30;;
21581;SDS011;10952;50.836;4.348;2022-07-25T06:07:23;5.30;;;2.30;;
21581;SDS011;10952;50.836;4.348;2022-07-25T06:09:49;4.93;;;2.40;;
21581;SDS011;10952;50.836;4.348;2022-07-25T06:12:14;7.87;;;2.63;;
21581;SDS011;10952;50.836;4.348;2022-07-25T06:14:40;7.67;;;2.80;;
21581;SDS011;10952;50.836;4.348;2022-07-25T06:17:06;6.97;;;2.73;;
21581;SDS011;10952;50.836;4.348;2022-07-25T06:19:32;5.97;;;2.80;;
21581;SDS011;10952;50.836;4.348;2022-07-25T06:21:57;8.70;;;2.73;;
21581;SDS011;10952;50.836;4.348;2022-07-25T06:24:24;5.77;;;2.43;;
21581;SDS011;10952;50.836;4.348;2022-07-25T06:26:53;6.80;;;2.30;;
21581;SDS011;10952;50.836;4.348;2022-07-25T06:29:19;5.43;;;2.60;;
21581;SDS011;10952;50.836;4.348;2022-07-25T06:31:45;9.00;;;2.63;;
21581;SDS011;10952;50.836;4.348;2022-07-25T06:34:12;10.00;;;2.60;;
21581;SDS011;10952;50.836;4.348;2022-07-25T06:36:38;6.00;;;2.60;;
21581;SDS011;10952;50.836;4.348;2022-07-25T06:39:03;8.30;;;3.40;;
21581;SDS011;10952;50.836;4.348;2022-07-25T06:41:30;11.20;;;3.00;;
21581;SDS011;10952;50.836;4.348;2022-07-25T06:43:56;7.60;;;2.03;;
21581;SDS011;10952;50.836;4.348;2022-07-25T06:46:22;9.13;;;2.77;;
21581;SDS011;10952;50.836;4.348;2022-07-25T06:48:48;6.70;;;2.83;;
21581;SDS011;10952;50.836;4.348;2022-07-25T06:51:13;4.97;;;1.90;;
21581;SDS011;10952;50.836;4.348;2022-07-25T06:53:39;10.40;;;3.67;;
21581;SDS011;10952;50.836;4.348;2022-07-25T06:56:05;7.73;;;2.77;;
21581;SDS011;10952;50.836;4.348;2022-07-25T06:58:30;6.67;;;2.30;;
21581;SDS011;10952;50.836;4.348;2022-07-25T07:00:56;9.73;;;2.50;;
21581;SDS011;10952;50.836;4.348;2022-07-25T07:03:22;5.37;;;2.50;;
21581;SDS011;10952;50.836;4.348;2022-07-25T07:05:48;5.30;;;2.03;;
21581;SDS011;10952;50.836;4.348;2022-07-25T07:08:13;9.73;;;2.30;;
21581;SDS011;10952;50.836;4.348;2022-07-25T07:10:39;7.40;;;2.93;;
21581;SDS011;10952;50.836;4.348;2022-07-25T07:13:08;9.03;;;2.40;;
21581;SDS011;10952;50.836;4.348;2022-07-25T07:15:35;8.07;;;2.20;;
21581;SDS011;10952;50.836;4.348;2022-07-25T07:18:01;6.40;;;2.30;;
21581;SDS011;10952;50.836;4.348;2022-07-25T07:20:27;11.17;;;2.50;;
21581;SDS011;10952;50.836;4.348;2022-07-25T07:22:53;6.13;;;2.13;;
21581;SDS011;10952;50.836;4.348;2022-07-25T07:25:19;6.13;;;2.13;;
21581;SDS011;10952;50.836;4.348;2022-07-25T07:27:45;6.60;;;2.53;;
21581;SDS011;10952;50.836;4.348;2022-07-25T07:30:12;7.27;;;2.60;;
21581;SDS011;10952;50.836;4.348;2022-07-25T07:32:41;8.87;;;2.50;;
21581;SDS011;10952;50.836;4.348;2022-07-25T07:35:07;10.60;;;2.60;;
21581;SDS011;10952;50.836;4.348;2022-07-25T07:37:35;8.37;;;3.00;;
21581;SDS011;10952;50.836;4.348;2022-07-25T07:40:00;9.03;;;2.50;;
21581;SDS011;10952;50.836;4.348;2022-07-25T07:42:27;4.30;;;2.30;;
21581;SDS011;10952;50.836;4.348;2022-07-25T07:45:00;6.30;;;2.23;;
21581;SDS011;10952;50.836;4.348;2022-07-25T07:47:26;6.10;;;2.00;;
21581;SDS011;10952;50.836;4.348;2022-07-25T07:49:51;14.43;;;2.70;;
21581;SDS011;10952;50.836;4.348;2022-07-25T07:52:17;6.90;;;2.57;;
21581;SDS011;10952;50.836;4.348;2022-07-25T07:54:44;5.77;;;2.30;;
21581;SDS011;10952;50.836;4.348;2022-07-25T07:57:31;4.70;;;1.93;;
21581;SDS011;10952;50.836;4.348;2022-07-25T07:59:57;7.73;;;2.00;;
21581;SDS011;10952;50.836;4.348;2022-07-25T08:02:22;5.87;;;2.20;;
21581;SDS011;10952;50.836;4.348;2022-07-25T08:04:49;4.73;;;2.30;;
21581;SDS011;10952;50.836;4.348;2022-07-25T08:07:15;6.97;;;1.70;;
21581;SDS011;10952;50.836;4.348;2022-07-25T08:09:40;4.27;;;1.53;;
21581;SDS011;10952;50.836;4.348;2022-07-25T08:12:06;6.23;;;2.27;;
21581;SDS011;10952;50.836;4.348;2022-07-25T08:14:31;6.80;;;2.10;;
21581;SDS011;10952;50.836;4.348;2022-07-25T08:16:57;2.87;;;1.67;;
21581;SDS011;10952;50.836;4.348;2022-07-25T08:19:23;5.03;;;1.60;;
21581;SDS011;10952;50.836;4.348;2022-07-25T08:21:49;4.10;;;1.70;;
21581;SDS011;10952;50.836;4.348;2022-07-25T08:24:14;7.40;;;1.90;;
21581;SDS011;10952;50.836;4.348;2022-07-25T08:26:40;6.37;;;2.03;;
21581;SDS011;10952;50.836;4.348;2022-07-25T08:29:05;6.90;;;1.90;;
21581;SDS011;10952;50.836;4.348;2022-07-25T08:31:32;9.67;;;2.40;;
21581;SDS011;10952;50.836;4.348;2022-07-25T08:34:03;5.93;;;1.90;;
21581;SDS011;10952;50.836;4.348;2022-07-25T08:36:31;5.60;;;2.00;;
21581;SDS011;10952;50.836;4.348;2022-07-25T08:38:56;4.03;;;1.80;;
21581;SDS011;10952;50.836;4.348;2022-07-25T08:41:23;3.63;;;1.93;;
21581;SDS011;10952;50.836;4.348;2022-07-25T08:43:49;7.80;;;1.97;;
21581;SDS011;10952;50.836;4.348;2022-07-25T08:46:15;5.20;;;2.00;;
21581;SDS011;10952;50.836;4.348;2022-07-25T08:48:42;3.53;;;1.60;;
21581;SDS011;10952;50.836;4.348;2022-07-25T08:51:08;4.18;;;1.90;;
21581;SDS011;10952;50.836;4.348;2022-07-25T08:53:35;5.97;;;2.63;;
21581;SDS011;10952;50.836;4.348;2022-07-25T08:56:02;4.73;;;2.00;;
21581;SDS011;10952;50.836;4.348;2022-07-25T08:58:29;4.82;;;2.00;;
21581;SDS011;10952;50.836;4.348;2022-07-25T09:00:56;5.15;;;1.52;;
21581;SDS011;10952;50.836;4.348;2022-07-25T09:03:22;6.18;;;1.60;;
21581;SDS011;10952;50.836;4.348;2022-07-25T09:05:47;6.75;;;1.65;;
21581;SDS011;10952;50.836;4.348;2022-07-25T09:08:14;3.47;;;1.60;;
21581;SDS011;10952;50.836;4.348;2022-07-25T09:10:45;2.88;;;1.10;;
21581;SDS011;10952;50.836;4.348;2022-07-25T09:13:13;5.63;;;1.85;;
21581;SDS011;10952;50.836;4.348;2022-07-25T09:15:50;7.75;;;2.22;;
21581;SDS011;10952;50.836;4.348;2022-07-25T09:18:22;4.55;;;1.58;;
21581;SDS011;10952;50.836;4.348;2022-07-25T09:20:50;9.85;;;2.00;;
21581;SDS011;10952;50.836;4.348;2022-07-25T09:23:27;6.75;;;1.45;;
21581;SDS011;10952;50.836;4.348;2022-07-25T09:26:09;4.40;;;1.60;;
21581;SDS011;10952;50.836;4.348;2022-07-25T09:31:12;4.30;;;1.48;;
21581;SDS011;10952;50.836;4.348;2022-07-25T09:33:47;4.43;;;1.85;;
21581;SDS011;10952;50.836;4.348;2022-07-25T09:36:18;9.35;;;2.35;;
21581;SDS011;10952;50.836;4.348;2022-07-25T09:38:53;4.22;;;1.83;;
21581;SDS011;10952;50.836;4.348;2022-07-25T09:41:20;6.60;;;2.00;;
21581;SDS011;10952;50.836;4.348;2022-07-25T09:43:47;3.75;;;1.70;;
21581;SDS011;10952;50.836;4.348;2022-07-25T09:46:12;4.05;;;1.90;;
21581;SDS011;10952;50.836;4.348;2022-07-25T09:48:39;3.97;;;1.95;;
21581;SDS011;10952;50.836;4.348;2022-07-25T09:51:09;4.80;;;1.80;;
21581;SDS011;10952;50.836;4.348;2022-07-25T09:53:34;3.80;;;1.75;;
21581;SDS011;10952;50.836;4.348;2022-07-25T09:56:00;4.47;;;1.67;;
21581;SDS011;10952;50.836;4.348;2022-07-25T09:58:26;13.48;;;3.53;;
21581;SDS011;10952;50.836;4.348;2022-07-25T10:00:55;4.07;;;1.65;;
21581;SDS011;10952;50.836;4.348;2022-07-25T10:03:42;4.50;;;1.98;;
21581;SDS011;10952;50.836;4.348;2022-07-25T10:06:27;7.18;;;2.20;;
21581;SDS011;10952;50.836;4.348;2022-07-25T10:09:01;7.43;;;2.60;;
21581;SDS011;10952;50.836;4.348;2022-07-25T10:11:28;8.77;;;2.03;;
21581;SDS011;10952;50.836;4.348;2022-07-25T10:13:54;6.00;;;2.00;;
21581;SDS011;10952;50.836;4.348;2022-07-25T10:16:25;8.07;;;2.20;;
21581;SDS011;10952;50.836;4.348;2022-07-25T10:18:52;10.07;;;2.10;;
21581;SDS011;10952;50.836;4.348;2022-07-25T10:21:19;5.47;;;1.98;;
21581;SDS011;10952;50.836;4.348;2022-07-25T10:24:09;5.90;;;2.35;;
21581;SDS011;10952;50.836;4.348;2022-07-25T10:26:38;8.40;;;2.30;;
21581;SDS011;10952;50.836;4.348;2022-07-25T10:29:08;7.78;;;2.38;;
21581;SDS011;10952;50.836;4.348;2022-07-25T10:31:37;10.68;;;4.25;;
21581;SDS011;10952;50.836;4.348;2022-07-25T10:34:10;7.90;;;3.47;;
21581;SDS011;10952;50.836;4.348;2022-07-25T10:39:15;8.07;;;2.53;;
21581;SDS011;10952;50.836;4.348;2022-07-25T10:44:20;6.15;;;3.13;;
21581;SDS011;10952;50.836;4.348;2022-07-25T10:47:03;6.70;;;2.40;;
21581;SDS011;10952;50.836;4.348;2022-07-25T10:49:33;9.48;;;2.53;;
21581;SDS011;10952;50.836;4.348;2022-07-25T10:54:37;8.60;;;2.47;;
21581;SDS011;10952;50.836;4.348;2022-07-25T10:57:04;6.45;;;2.47;;
21581;SDS011;10952;50.836;4.348;2022-07-25T10:59:39;8.00;;;2.63;;
21581;SDS011;10952;50.836;4.348;2022-07-25T11:02:07;10.07;;;3.10;;
21581;SDS011;10952;50.836;4.348;2022-07-25T11:04:40;9.00;;;2.92;;
21581;SDS011;10952;50.836;4.348;2022-07-25T11:07:15;16.20;;;3.90;;
21581;SDS011;10952;50.836;4.348;2022-07-25T11:09:43;16.40;;;2.47;;
21581;SDS011;10952;50.836;4.348;2022-07-25T11:12:19;6.40;;;1.83;;
21581;SDS011;10952;50.836;4.348;2022-07-25T11:14:45;9.65;;;2.85;;
21581;SDS011;10952;50.836;4.348;2022-07-25T11:17:16;9.15;;;2.30;;
21581;SDS011;10952;50.836;4.348;2022-07-25T11:20:04;11.35;;;2.78;;
21581;SDS011;10952;50.836;4.348;2022-07-25T11:22:34;7.07;;;2.22;;
21581;SDS011;10952;50.836;4.348;2022-07-25T11:25:00;8.65;;;2.63;;
21581;SDS011;10952;50.836;4.348;2022-07-25T11:27:33;8.18;;;2.13;;
21581;SDS011;10952;50.836;4.348;2022-07-25T11:32:42;7.72;;;2.75;;
21581;SDS011;10952;50.836;4.348;2022-07-25T11:35:09;11.57;;;2.35;;
21581;SDS011;10952;50.836;4.348;2022-07-25T11:37:37;10.60;;;2.10;;
21581;SDS011;10952;50.836;4.348;2022-07-25T11:40:05;8.00;;;2.03;;
21581;SDS011;10952;50.836;4.348;2022-07-25T11:42:38;8.93;;;2.30;;
21581;SDS011;10952;50.836;4.348;2022-07-25T11:45:14;4.83;;;2.00;;
21581;SDS011;10952;50.836;4.348;2022-07-25T11:47:43;8.07;;;2.10;;
21581;SDS011;10952;50.836;4.348;2022-07-25T11:50:09;11.32;;;2.42;;
21581;SDS011;10952;50.836;4.348;2022-07-25T11:52:39;6.93;;;2.13;;
21581;SDS011;10952;50.836;4.348;2022-07-25T11:55:16;7.65;;;2.50;;
21581;SDS011;10952;50.836;4.348;2022-07-25T11:57:43;10.57;;;3.00;;
21581;SDS011;10952;50.836;4.348;2022-07-25T12:00:17;12.07;;;2.65;;
21581;SDS011;10952;50.836;4.348;2022-07-25T12:02:45;8.63;;;2.15;;
21581;SDS011;10952;50.836;4.348;2022-07-25T12:05:12;9.65;;;2.63;;
21581;SDS011;10952;50.836;4.348;2022-07-25T12:10:14;8.30;;;2.88;;
21581;SDS011;10952;50.836;4.348;2022-07-25T12:12:50;5.90;;;2.53;;
21581;SDS011;10952;50.836;4.348;2022-07-25T12:15:24;6.78;;;2.28;;
21581;SDS011;10952;50.836;4.348;2022-07-25T12:17:52;5.35;;;1.77;;
21581;SDS011;10952;50.836;4.348;2022-07-25T12:20:26;7.57;;;2.35;;
21581;SDS011;10952;50.836;4.348;2022-07-25T12:22:57;5.07;;;2.00;;
21581;SDS011;10952;50.836;4.348;2022-07-25T12:25:26;6.68;;;2.50;;
21581;SDS011;10952;50.836;4.348;2022-07-25T12:27:55;9.48;;;2.70;;
21581;SDS011;10952;50.836;4.348;2022-07-25T12:30:23;12.50;;;2.83;;
21581;SDS011;10952;50.836;4.348;2022-07-25T12:32:49;8.73;;;2.60;;
21581;SDS011;10952;50.836;4.348;2022-07-25T12:35:16;12.77;;;3.42;;
21581;SDS011;10952;50.836;4.348;2022-07-25T12:37:42;8.43;;;2.47;;
21581;SDS011;10952;50.836;4.348;2022-07-25T12:40:09;10.68;;;2.63;;
21581;SDS011;10952;50.836;4.348;2022-07-25T12:42:36;13.73;;;2.90;;
21581;SDS011;10952;50.836;4.348;2022-07-25T12:45:01;7.40;;;2.75;;
21581;SDS011;10952;50.836;4.348;2022-07-25T12:47:28;7.32;;;2.47;;
21581;SDS011;10952;50.836;4.348;2022-07-25T12:49:53;11.07;;;2.20;;
21581;SDS011;10952;50.836;4.348;2022-07-25T12:52:19;7.38;;;3.00;;
21581;SDS011;10952;50.836;4.348;2022-07-25T12:54:47;5.53;;;1.83;;
21581;SDS011;10952;50.836;4.348;2022-07-25T12:57:13;7.35;;;2.75;;
21581;SDS011;10952;50.836;4.348;2022-07-25T12:59:39;5.32;;;1.85;;
21581;SDS011;10952;50.836;4.348;2022-07-25T13:02:05;9.38;;;2.78;;
21581;SDS011;10952;50.836;4.348;2022-07-25T13:04:31;11.38;;;2.97;;
21581;SDS011;10952;50.836;4.348;2022-07-25T13:06:57;8.45;;;2.15;;
21581;SDS011;10952;50.836;4.348;2022-07-25T13:09:23;8.60;;;2.25;;
21581;SDS011;10952;50.836;4.348;2022-07-25T13:11:50;16.55;;;3.20;;
21581;SDS011;10952;50.836;4.348;2022-07-25T13:14:16;12.73;;;2.58;;
21581;SDS011;10952;50.836;4.348;2022-07-25T13:16:42;15.20;;;2.40;;
21581;SDS011;10952;50.836;4.348;2022-07-25T13:19:09;10.77;;;2.28;;
21581;SDS011;10952;50.836;4.348;2022-07-25T13:21:35;9.23;;;1.67;;
21581;SDS011;10952;50.836;4.348;2022-07-25T13:24:01;9.68;;;1.58;;
21581;SDS011;10952;50.836;4.348;2022-07-25T13:26:27;7.32;;;1.95;;
21581;SDS011;10952;50.836;4.348;2022-07-25T13:28:53;6.22;;;2.00;;
21581;SDS011;10952;50.836;4.348;2022-07-25T13:31:19;8.40;;;1.73;;
21581;SDS011;10952;50.836;4.348;2022-07-25T13:33:46;8.93;;;1.90;;
21581;SDS011;10952;50.836;4.348;2022-07-25T13:36:14;7.47;;;2.00;;
21581;SDS011;10952;50.836;4.348;2022-07-25T13:38:40;7.72;;;2.25;;
21581;SDS011;10952;50.836;4.348;2022-07-25T13:41:07;14.43;;;1.90;;
21581;SDS011;10952;50.836;4.348;2022-07-25T13:43:34;10.48;;;1.83;;
21581;SDS011;10952;50.836;4.348;2022-07-25T13:45:59;6.65;;;2.20;;
21581;SDS011;10952;50.836;4.348;2022-07-25T13:48:26;5.35;;;1.48;;
21581;SDS011;10952;50.836;4.348;2022-07-25T13:50:52;5.78;;;1.48;;
21581;SDS011;10952;50.836;4.348;2022-07-25T13:53:18;5.57;;;1.73;;
21581;SDS011;10952;50.836;4.348;2022-07-25T13:58:13;9.80;;;1.60;;
21581;SDS011;10952;50.836;4.348;2022-07-25T14:00:41;7.55;;;1.42;;
21581;SDS011;10952;50.836;4.348;2022-07-25T14:03:07;8.48;;;1.80;;
21581;SDS011;10952;50.836;4.348;2022-07-25T14:05:32;10.43;;;3.15;;
21581;SDS011;10952;50.836;4.348;2022-07-25T14:07:58;6.72;;;1.70;;
21581;SDS011;10952;50.836;4.348;2022-07-25T14:10:24;10.57;;;1.83;;
21581;SDS011;10952;50.836;4.348;2022-07-25T14:12:50;11.30;;;2.25;;
21581;SDS011;10952;50.836;4.348;2022-07-25T14:15:15;9.18;;;2.30;;
21581;SDS011;10952;50.836;4.348;2022-07-25T14:17:41;6.63;;;1.42;;
21581;SDS011;10952;50.836;4.348;2022-07-25T14:20:07;6.03;;;1.40;;
21581;SDS011;10952;50.836;4.348;2022-07-25T14:22:34;7.50;;;1.52;;
21581;SDS011;10952;50.836;4.348;2022-07-25T14:24:59;7.22;;;1.30;;
21581;SDS011;10952;50.836;4.348;2022-07-25T14:27:25;5.93;;;1.38;;
21581;SDS011;10952;50.836;4.348;2022-07-25T14:29:53;8.70;;;1.75;;
21581;SDS011;10952;50.836;4.348;2022-07-25T14:32:19;5.70;;;1.48;;
21581;SDS011;10952;50.836;4.348;2022-07-25T14:34:44;7.25;;;2.00;;
21581;SDS011;10952;50.836;4.348;2022-07-25T14:37:11;11.07;;;1.98;;
21581;SDS011;10952;50.836;4.348;2022-07-25T14:39:37;8.35;;;1.67;;
21581;SDS011;10952;50.836;4.348;2022-07-25T14:42:03;7.82;;;1.63;;
21581;SDS011;10952;50.836;4.348;2022-07-25T14:44:29;9.20;;;1.48;;
21581;SDS011;10952;50.836;4.348;2022-07-25T14:46:55;10.93;;;1.80;;
21581;SDS011;10952;50.836;4.348;2022-07-25T14:49:23;6.10;;;1.40;;
21581;SDS011;10952;50.836;4.348;2022-07-25T14:51:50;12.55;;;1.40;;
21581;SDS011;10952;50.836;4.348;2022-07-25T14:54:19;8.07;;;2.80;;
21581;SDS011;10952;50.836;4.348;2022-07-25T14:56:45;6.65;;;1.35;;
21581;SDS011;10952;50.836;4.348;2022-07-25T14:59:11;7.75;;;1.58;;
21581;SDS011;10952;50.836;4.348;2022-07-25T15:01:37;2.50;;;0.90;;
21581;SDS011;10952;50.836;4.348;2022-07-25T15:04:04;3.58;;;0.90;;
21581;SDS011;10952;50.836;4.348;2022-07-25T15:06:36;9.02;;;1.35;;
21581;SDS011;10952;50.836;4.348;2022-07-25T15:09:02;8.55;;;1.73;;